Time,TemperatureF,DewpointF,PressureIn,WindDirection,WindDirectionDegrees,WindSpeedMPH,WindSpeedGustMPH,Humidity,HourlyPrecipIn,Conditions,Clouds,dailyrainin,SoftwareType,DateUTC
2013-08-09 00:04:00,60.1,46.2,30.00,North,-999,0.0,0.0,60,0.00,,,-99.99,FreeWX-Wi 1.02,2013-08-09 07:04:00,
2013-08-09 00:09:00,59.9,46.0,30.00,North,-999,0.0,0.0,60,0.00,,,-99.99,FreeWX-Wi 1.02,2013-08-09 07:09:00,
2013-08-09 00:14:00,59.7,46.2,30.00,North,-999,0.0,0.0,61,0.00,,,-99.99,FreeWX-Wi 1.02,2013-08-09 07:14:00,
2013-08-09 00:19:00,59.5,46.0,30.00,North,-999,0.0,0.0,61,0.00,,,-99.99,FreeWX-Wi 1.02,2013-08-09 07:19:00,
2013-08-09 00:24:00,59.5,46.0,30.00,North,-999,0.0,0.0,61,0.00,,,-99.99,FreeWX-Wi 1.02,2013-08-09 07:24:00,
2013-08-09 00:29:00,59.4,46.4,30.00,North,-999,0.0,0.0,62,0.00,,,-99.99,FreeWX-Wi 1.02,2013-08-09 07:29:00,
2013-08-09 00:34:00,59.2,46.2,30.00,North,-999,0.0,0.0,62,0.00,,,-99.99,FreeWX-Wi 1.02,2013-08-09 07:34:00,
2013-08-09 00:39:00,59.2,46.6,30.00,North,-999,0.0,0.0,63,0.00,,,-99.99,FreeWX-Wi 1.02,2013-08-09 07:39:00,
2013-08-09 00:45:00,59.0,46.4,30.00,North,-999,0.0,0.0,63,0.00,,,-99.99,FreeWX-Wi 1.02,2013-08-09 07:45:00,
2013-08-09 00:50:00,58.8,46.6,30.00,North,-999,0.0,0.0,64,0.00,,,-99.99,FreeWX-Wi 1.02,2013-08-09 07:50:00,
2013-08-09 00:55:00,58.8,46.6,30.00,North,-999,0.0,0.0,64,0.00,,,-99.99,FreeWX-Wi 1.02,2013-08-09 07:55:00,
2013-08-09 01:00:00,58.6,46.9,30.00,North,-999,0.0,0.0,65,0.00,,,-99.99,FreeWX-Wi 1.02,2013-08-09 08:00:00,
2013-08-09 01:05:00,58.6,46.9,30.00,North,-999,0.0,0.0,65,0.00,,,-99.99,FreeWX-Wi 1.02,2013-08-09 08:05:00,
2013-08-09 01:10:00,58.5,46.8,30.00,North,-999,0.0,0.0,65,0.00,,,-99.99,FreeWX-Wi 1.02,2013-08-09 08:10:00,
2013-08-09 01:15:00,58.5,47.1,30.00,North,-999,0.0,0.0,66,0.00,,,-99.99,FreeWX-Wi 1.02,2013-08-09 08:15:00,
2013-08-09 01:20:00,58.5,47.1,30.00,North,-999,0.0,0.0,66,0.00,,,-99.99,FreeWX-Wi 1.02,2013-08-09 08:20:00,
2013-08-09 01:25:00,58.3,46.9,30.00,North,-999,0.0,0.0,66,0.00,,,-99.99,FreeWX-Wi 1.02,2013-08-09 08:25:00,
2013-08-09 01:37:00,58.1,47.7,30.00,North,-999,0.0,0.0,68,0.00,,,-99.99,FreeWX-Wi 1.02,2013-08-09 08:37:00,
2013-08-09 01:43:00,58.1,47.7,30.00,North,-999,0.0,0.0,68,0.00,,,-99.99,FreeWX-Wi 1.02,2013-08-09 08:43:00,
2013-08-09 01:48:00,57.9,47.5,30.00,North,-999,0.0,0.0,68,0.00,,,-99.99,FreeWX-Wi 1.02,2013-08-09 08:48:00,
2013-08-09 01:53:00,57.9,47.5,30.00,North,-999,0.0,0.0,68,0.00,,,-99.99,FreeWX-Wi 1.02,2013-08-09 08:53:00,
2013-08-09 01:58:00,57.9,48.2,30.00,North,-999,0.0,0.0,70,0.00,,,-99.99,FreeWX-Wi 1.02,2013-08-09 08:58:00,
2013-08-09 02:03:00,58.1,48.7,30.00,North,-999,0.0,0.0,71,0.00,,,-99.99,FreeWX-Wi 1.02,2013-08-09 09:03:00,
2013-08-09 02:08:00,58.1,48.7,30.00,North,-999,0.0,0.0,71,0.00,,,-99.99,FreeWX-Wi 1.02,2013-08-09 09:08:00,
2013-08-09 02:13:00,58.1,48.7,30.00,North,-999,0.0,0.0,71,0.00,,,-99.99,FreeWX-Wi 1.02,2013-08-09 09:13:00,
2013-08-09 02:18:00,57.9,48.6,29.97,North,-999,0.0,0.0,71,0.00,,,-99.99,FreeWX-Wi 1.02,2013-08-09 09:18:00,
2013-08-09 02:24:00,57.9,48.9,29.97,North,-999,0.0,0.0,72,0.00,,,-99.99,FreeWX-Wi 1.02,2013-08-09 09:24:00,
2013-08-09 02:29:00,57.9,49.3,29.97,North,-999,0.0,0.0,73,0.00,,,-99.99,FreeWX-Wi 1.02,2013-08-09 09:29:00,
2013-08-09 02:34:00,57.9,48.9,30.00,North,-999,0.0,0.0,72,0.00,,,-99.99,FreeWX-Wi 1.02,2013-08-09 09:34:00,
2013-08-09 02:39:00,57.9,49.3,30.00,North,-999,0.0,0.0,73,0.00,,,-99.99,FreeWX-Wi 1.02,2013-08-09 09:39:00,
2013-08-09 02:44:00,58.1,49.8,30.00,North,-999,0.0,0.0,74,0.00,,,-99.99,FreeWX-Wi 1.02,2013-08-09 09:44:00,
2013-08-09 02:49:00,58.1,49.8,29.97,North,-999,0.0,0.0,74,0.00,,,-99.99,FreeWX-Wi 1.02,2013-08-09 09:49:00,
2013-08-09 02:54:00,58.5,50.5,29.97,North,-999,0.0,0.0,75,0.00,,,-99.99,FreeWX-Wi 1.02,2013-08-09 09:54:00,
2013-08-09 02:59:00,58.5,50.5,29.97,North,-999,0.0,0.0,75,0.00,,,-99.99,FreeWX-Wi 1.02,2013-08-09 09:59:00,
2013-08-09 03:05:00,58.5,50.5,29.97,North,-999,0.0,0.0,75,0.00,,,-99.99,FreeWX-Wi 1.02,2013-08-09 10:05:00,
2013-08-09 03:10:00,58.5,50.9,29.97,North,-999,0.0,3.1,76,0.00,,,-99.99,FreeWX-Wi 1.02,2013-08-09 10:10:00,
2013-08-09 03:21:00,58.6,51.4,29.97,North,-999,0.0,0.0,77,0.00,,,-99.99,FreeWX-Wi 1.02,2013-08-09 10:21:00,
2013-08-09 03:26:00,58.6,51.4,29.97,North,-999,0.0,3.1,77,0.00,,,-99.99,FreeWX-Wi 1.02,2013-08-09 10:26:00,
2013-08-09 03:31:00,58.6,51.8,29.97,North,-999,0.0,4.0,78,0.00,,,-99.99,FreeWX-Wi 1.02,2013-08-09 10:31:00,
2013-08-09 03:36:00,58.8,52.0,29.97,NW,315,1.0,3.6,78,0.00,,,-99.99,FreeWX-Wi 1.02,2013-08-09 10:36:00,
2013-08-09 03:41:00,58.8,52.0,29.97,North,-999,0.0,0.0,78,0.00,,,-99.99,FreeWX-Wi 1.02,2013-08-09 10:41:00,
2013-08-09 03:46:00,58.6,52.2,29.97,North,-999,0.0,0.0,79,0.00,,,-99.99,FreeWX-Wi 1.02,2013-08-09 10:46:00,
2013-08-09 03:51:00,58.6,52.2,29.97,North,-999,0.0,0.0,79,0.00,,,-99.99,FreeWX-Wi 1.02,2013-08-09 10:51:00,
2013-08-09 03:56:00,58.6,52.2,29.97,North,-999,0.0,2.7,79,0.00,,,-99.99,FreeWX-Wi 1.02,2013-08-09 10:56:00,
2013-08-09 04:01:00,58.6,52.2,29.97,North,-999,0.0,0.0,79,0.00,,,-99.99,FreeWX-Wi 1.02,2013-08-09 11:01:00,
2013-08-09 04:06:00,58.5,52.0,29.97,North,-999,0.0,0.0,79,0.00,,,-99.99,FreeWX-Wi 1.02,2013-08-09 11:06:00,
2013-08-09 04:11:00,58.5,52.3,29.97,North,-999,0.0,3.1,80,0.00,,,-99.99,FreeWX-Wi 1.02,2013-08-09 11:11:00,
2013-08-09 04:16:00,58.5,52.3,29.97,North,-999,0.0,2.7,80,0.00,,,-99.99,FreeWX-Wi 1.02,2013-08-09 11:16:00,
2013-08-09 04:22:00,58.5,52.3,29.97,North,-999,0.0,2.7,80,0.00,,,-99.99,FreeWX-Wi 1.02,2013-08-09 11:22:00,
2013-08-09 04:27:00,58.3,52.2,29.97,North,-999,0.0,0.0,80,0.00,,,-99.99,FreeWX-Wi 1.02,2013-08-09 11:27:00,
2013-08-09 04:32:00,58.1,52.0,29.94,North,-999,0.0,0.0,80,0.00,,,-99.99,FreeWX-Wi 1.02,2013-08-09 11:32:00,
2013-08-09 04:37:00,57.9,51.8,29.94,North,-999,0.0,0.0,80,0.00,,,-99.99,FreeWX-Wi 1.02,2013-08-09 11:37:00,
2013-08-09 04:42:00,57.7,51.6,29.94,North,-999,0.0,0.0,80,0.00,,,-99.99,FreeWX-Wi 1.02,2013-08-09 11:42:00,
2013-08-09 04:47:00,57.6,51.4,29.94,North,-999,0.0,0.0,80,0.00,,,-99.99,FreeWX-Wi 1.02,2013-08-09 11:47:00,
2013-08-09 04:52:00,57.4,51.3,29.94,North,-999,0.0,0.0,80,0.00,,,-99.99,FreeWX-Wi 1.02,2013-08-09 11:52:00,
2013-08-09 04:57:00,57.2,51.4,29.94,North,-999,0.0,5.4,81,0.00,,,-99.99,FreeWX-Wi 1.02,2013-08-09 11:57:00,
2013-08-09 05:02:00,57.6,52.2,29.94,North,-999,0.0,4.9,82,0.00,,,-99.99,FreeWX-Wi 1.02,2013-08-09 12:02:00,
2013-08-09 05:07:00,57.7,52.5,29.94,North,-999,0.0,3.6,83,0.00,,,-99.99,FreeWX-Wi 1.02,2013-08-09 12:07:00,
2013-08-09 05:12:00,57.9,52.7,29.94,North,-999,0.0,4.0,83,0.00,,,-99.99,FreeWX-Wi 1.02,2013-08-09 12:12:00,
2013-08-09 05:17:00,57.7,52.5,29.94,North,-999,0.0,0.0,83,0.00,,,-99.99,FreeWX-Wi 1.02,2013-08-09 12:17:00,
2013-08-09 05:23:00,57.6,52.5,29.94,North,-999,0.0,0.0,83,0.00,,,-99.99,FreeWX-Wi 1.02,2013-08-09 12:23:00,
2013-08-09 05:28:00,57.6,52.5,29.94,North,-999,0.0,0.0,83,0.00,,,-99.99,FreeWX-Wi 1.02,2013-08-09 12:28:00,
2013-08-09 05:33:00,57.4,52.3,29.94,North,-999,0.0,0.0,83,0.00,,,-99.99,FreeWX-Wi 1.02,2013-08-09 12:33:00,
2013-08-09 05:38:00,57.2,52.2,29.94,North,-999,0.0,0.0,83,0.00,,,-99.99,FreeWX-Wi 1.02,2013-08-09 12:38:00,
2013-08-09 05:43:00,57.0,52.0,29.94,North,-999,0.0,0.0,83,0.00,,,-99.99,FreeWX-Wi 1.02,2013-08-09 12:43:00,
2013-08-09 05:48:00,56.8,51.8,29.94,North,-999,0.0,0.0,83,0.00,,,-99.99,FreeWX-Wi 1.02,2013-08-09 12:48:00,
2013-08-09 05:53:00,56.8,52.0,29.94,North,-999,0.0,0.0,84,0.00,,,-99.99,FreeWX-Wi 1.02,2013-08-09 12:53:00,
2013-08-09 05:58:00,56.8,52.0,29.94,North,-999,0.0,0.0,84,0.00,,,-99.99,FreeWX-Wi 1.02,2013-08-09 12:58:00,
2013-08-09 06:03:00,56.8,52.0,29.94,North,-999,0.0,0.0,84,0.00,,,-99.99,FreeWX-Wi 1.02,2013-08-09 13:03:00,
2013-08-09 06:08:00,56.7,51.8,29.94,North,-999,0.0,0.0,84,0.00,,,-99.99,FreeWX-Wi 1.02,2013-08-09 13:08:00,
2013-08-09 06:13:00,56.7,51.8,29.94,North,-999,0.0,0.0,84,0.00,,,-99.99,FreeWX-Wi 1.02,2013-08-09 13:13:00,
2013-08-09 06:19:00,56.5,51.6,29.94,North,-999,0.0,0.0,84,0.00,,,-99.99,FreeWX-Wi 1.02,2013-08-09 13:19:00,
2013-08-09 06:24:00,56.5,51.6,29.94,North,-999,0.0,0.0,84,0.00,,,-99.99,FreeWX-Wi 1.02,2013-08-09 13:24:00,
2013-08-09 06:29:00,56.7,52.2,29.94,North,-999,0.0,0.0,85,0.00,,,-99.99,FreeWX-Wi 1.02,2013-08-09 13:29:00,
2013-08-09 06:34:00,56.8,52.3,29.94,North,-999,0.0,0.0,85,0.00,,,-99.99,FreeWX-Wi 1.02,2013-08-09 13:34:00,
2013-08-09 06:39:00,57.0,52.5,29.94,North,-999,0.0,0.0,85,0.00,,,-99.99,FreeWX-Wi 1.02,2013-08-09 13:39:00,
2013-08-09 06:44:00,57.4,52.9,29.94,North,-999,0.0,0.0,85,0.00,,,-99.99,FreeWX-Wi 1.02,2013-08-09 13:44:00,
2013-08-09 06:56:00,58.8,55.0,29.94,North,-999,0.0,3.6,87,0.00,,,-99.99,FreeWX-Wi 1.02,2013-08-09 13:56:00,
2013-08-09 07:01:00,59.7,55.8,29.94,North,-999,0.0,0.0,87,0.00,,,-99.99,FreeWX-Wi 1.02,2013-08-09 14:01:00,
2013-08-09 07:07:00,59.7,55.6,29.94,North,-999,0.0,0.0,86,0.00,,,-99.99,FreeWX-Wi 1.02,2013-08-09 14:07:00,
2013-08-09 07:12:00,59.7,55.2,29.94,North,-999,0.0,0.0,85,0.00,,,-99.99,FreeWX-Wi 1.02,2013-08-09 14:12:00,
2013-08-09 07:17:00,59.7,55.2,29.94,North,-999,0.0,0.0,85,0.00,,,-99.99,FreeWX-Wi 1.02,2013-08-09 14:17:00,
2013-08-09 07:22:00,59.7,55.2,29.94,North,-999,0.0,0.0,85,0.00,,,-99.99,FreeWX-Wi 1.02,2013-08-09 14:22:00,
2013-08-09 07:27:00,59.5,55.0,29.94,North,-999,0.0,0.0,85,0.00,,,-99.99,FreeWX-Wi 1.02,2013-08-09 14:27:00,
2013-08-09 07:32:00,59.5,55.0,29.94,North,-999,0.0,0.0,85,0.00,,,-99.99,FreeWX-Wi 1.02,2013-08-09 14:32:00,
2013-08-09 07:37:00,59.5,55.0,29.94,North,-999,0.0,0.0,85,0.00,,,-99.99,FreeWX-Wi 1.02,2013-08-09 14:37:00,
2013-08-09 07:42:00,59.4,54.9,29.94,North,-999,0.0,0.0,85,0.00,,,-99.99,FreeWX-Wi 1.02,2013-08-09 14:42:00,
2013-08-09 07:47:00,59.4,54.9,29.94,North,-999,0.0,0.0,85,0.00,,,-99.99,FreeWX-Wi 1.02,2013-08-09 14:47:00,
2013-08-09 07:52:00,59.4,54.9,29.94,North,-999,0.0,0.0,85,0.00,,,-99.99,FreeWX-Wi 1.02,2013-08-09 14:52:00,
2013-08-09 07:57:00,59.4,54.9,29.94,North,-999,0.0,0.0,85,0.00,,,-99.99,FreeWX-Wi 1.02,2013-08-09 14:57:00,
2013-08-09 08:03:00,59.5,55.0,29.94,North,-999,0.0,0.0,85,0.00,,,-99.99,FreeWX-Wi 1.02,2013-08-09 15:03:00,
2013-08-09 08:08:00,59.5,54.7,29.94,North,-999,0.0,0.0,84,0.00,,,-99.99,FreeWX-Wi 1.02,2013-08-09 15:08:00,
2013-08-09 08:13:00,59.7,54.9,29.94,North,-999,0.0,0.0,84,0.00,,,-99.99,FreeWX-Wi 1.02,2013-08-09 15:13:00,
2013-08-09 08:18:00,59.9,55.0,29.94,North,-999,0.0,0.0,84,0.00,,,-99.99,FreeWX-Wi 1.02,2013-08-09 15:18:00,
2013-08-09 08:23:00,60.3,55.8,29.94,North,-999,0.0,0.0,85,0.00,,,-99.99,FreeWX-Wi 1.02,2013-08-09 15:23:00,
2013-08-09 08:28:00,60.4,55.6,29.94,North,-999,0.0,0.0,84,0.00,,,-99.99,FreeWX-Wi 1.02,2013-08-09 15:28:00,
2013-08-09 08:33:00,60.6,55.8,29.94,North,-999,0.0,0.0,84,0.00,,,-99.99,FreeWX-Wi 1.02,2013-08-09 15:33:00,
2013-08-09 08:38:00,60.6,55.8,29.94,North,-999,0.0,0.0,84,0.00,,,-99.99,FreeWX-Wi 1.02,2013-08-09 15:38:00,
2013-08-09 08:43:00,60.6,55.4,29.94,North,-999,0.0,0.0,83,0.00,,,-99.99,FreeWX-Wi 1.02,2013-08-09 15:43:00,
2013-08-09 08:48:00,60.6,55.4,29.94,North,-999,0.0,0.0,83,0.00,,,-99.99,FreeWX-Wi 1.02,2013-08-09 15:48:00,
2013-08-09 08:53:00,60.8,55.2,29.94,North,-999,0.0,5.4,82,0.00,,,-99.99,FreeWX-Wi 1.02,2013-08-09 15:53:00,
2013-08-09 08:58:00,61.0,54.7,29.94,NW,324,1.0,4.0,80,0.00,,,-99.99,FreeWX-Wi 1.02,2013-08-09 15:58:00,
2013-08-09 09:04:00,61.3,53.8,29.94,North,1,1.0,4.0,76,0.00,,,-99.99,FreeWX-Wi 1.02,2013-08-09 16:04:00,
2013-08-09 09:09:00,61.7,53.2,29.94,North,7,2.0,4.0,74,0.00,,,-99.99,FreeWX-Wi 1.02,2013-08-09 16:09:00,
2013-08-09 09:14:00,61.7,52.5,29.94,NNE,15,2.0,4.9,72,0.00,,,-99.99,FreeWX-Wi 1.02,2013-08-09 16:14:00,
2013-08-09 09:19:00,61.7,51.1,29.94,NNE,23,3.0,5.4,68,0.00,,,-99.99,FreeWX-Wi 1.02,2013-08-09 16:19:00,
2013-08-09 09:24:00,61.9,51.3,29.94,NNE,23,3.0,4.0,68,0.00,,,-99.99,FreeWX-Wi 1.02,2013-08-09 16:24:00,
2013-08-09 09:36:00,62.6,51.1,29.94,NNE,16,2.0,3.6,66,0.00,,,-99.99,FreeWX-Wi 1.02,2013-08-09 16:36:00,
2013-08-09 09:41:00,63.0,51.1,29.94,North,9,2.0,4.0,65,0.00,,,-99.99,FreeWX-Wi 1.02,2013-08-09 16:41:00,
2013-08-09 09:46:00,63.0,50.5,29.94,North,8,2.0,4.0,64,0.00,,,-99.99,FreeWX-Wi 1.02,2013-08-09 16:46:00,
2013-08-09 09:51:00,63.1,49.8,29.94,North,9,2.0,4.0,62,0.00,,,-99.99,FreeWX-Wi 1.02,2013-08-09 16:51:00,
2013-08-09 09:56:00,63.5,49.8,29.94,North,9,3.0,4.0,61,0.00,,,-99.99,FreeWX-Wi 1.02,2013-08-09 16:56:00,
2013-08-09 10:01:00,63.5,48.9,29.94,North,9,3.0,4.9,59,0.00,,,-99.99,FreeWX-Wi 1.02,2013-08-09 17:01:00,
2013-08-09 10:06:00,64.0,48.0,29.94,North,10,3.0,4.0,56,0.00,,,-99.99,FreeWX-Wi 1.02,2013-08-09 17:06:00,
2013-08-09 10:12:00,64.6,48.0,29.94,NNE,12,3.0,4.9,55,0.00,,,-99.99,FreeWX-Wi 1.02,2013-08-09 17:12:00,
2013-08-09 10:17:00,65.1,48.6,29.94,NNE,13,3.0,3.6,55,0.00,,,-99.99,FreeWX-Wi 1.02,2013-08-09 17:17:00,
2013-08-09 10:22:00,65.3,48.7,29.94,North,11,2.0,0.0,55,0.00,,,-99.99,FreeWX-Wi 1.02,2013-08-09 17:22:00,
2013-08-09 10:27:00,65.3,48.7,29.94,North,11,2.0,0.0,55,0.00,,,-99.99,FreeWX-Wi 1.02,2013-08-09 17:27:00,
2013-08-09 10:32:00,65.5,48.9,29.94,NNE,13,1.0,4.0,55,0.00,,,-99.99,FreeWX-Wi 1.02,2013-08-09 17:32:00,
2013-08-09 10:37:00,65.7,49.1,29.94,North,-999,0.0,0.0,55,0.00,,,-99.99,FreeWX-Wi 1.02,2013-08-09 17:37:00,
2013-08-09 10:42:00,65.7,49.1,29.94,North,11,1.0,4.9,55,0.00,,,-99.99,FreeWX-Wi 1.02,2013-08-09 17:42:00,
2013-08-09 10:47:00,66.0,48.4,29.94,NNE,14,1.0,6.3,53,0.00,,,-99.99,FreeWX-Wi 1.02,2013-08-09 17:47:00,
2013-08-09 10:52:00,66.4,48.2,29.94,NNE,19,2.0,6.3,52,0.00,,,-99.99,FreeWX-Wi 1.02,2013-08-09 17:52:00,
2013-08-09 10:57:00,66.9,48.2,29.94,NNE,22,2.0,5.8,51,0.00,,,-99.99,FreeWX-Wi 1.02,2013-08-09 17:57:00,
2013-08-09 11:02:00,67.3,48.6,29.91,NNE,30,3.0,6.3,51,0.00,,,-99.99,FreeWX-Wi 1.02,2013-08-09 18:02:00,
2013-08-09 11:07:00,67.8,49.1,29.91,NE,42,3.0,4.9,51,0.00,,,-99.99,FreeWX-Wi 1.02,2013-08-09 18:07:00,
2013-08-09 11:13:00,68.2,48.7,29.91,ENE,64,3.0,3.6,50,0.00,,,-99.99,FreeWX-Wi 1.02,2013-08-09 18:13:00,
2013-08-09 11:18:00,68.5,48.0,29.91,ENE,77,2.0,4.0,48,0.00,,,-99.99,FreeWX-Wi 1.02,2013-08-09 18:18:00,
2013-08-09 11:23:00,68.7,48.2,29.91,ENE,77,2.0,4.0,48,0.00,,,-99.99,FreeWX-Wi 1.02,2013-08-09 18:23:00,
2013-08-09 11:28:00,68.5,48.0,29.91,ENE,71,2.0,5.4,48,0.00,,,-99.99,FreeWX-Wi 1.02,2013-08-09 18:28:00,
2013-08-09 11:33:00,68.4,47.8,29.91,NE,56,2.0,4.0,48,0.00,,,-99.99,FreeWX-Wi 1.02,2013-08-09 18:33:00,
2013-08-09 11:38:00,68.7,48.2,29.91,NE,46,1.0,4.0,48,0.00,,,-99.99,FreeWX-Wi 1.02,2013-08-09 18:38:00,
2013-08-09 11:50:00,69.1,48.6,29.91,SSE,147,2.0,5.4,48,0.00,,,-99.99,FreeWX-Wi 1.02,2013-08-09 18:50:00,
2013-08-09 11:56:00,69.6,49.1,29.91,East,79,2.0,5.4,48,0.00,,,-99.99,FreeWX-Wi 1.02,2013-08-09 18:56:00,
2013-08-09 12:01:00,70.0,47.7,29.91,NE,47,3.0,5.4,45,0.00,,,-99.99,FreeWX-Wi 1.02,2013-08-09 19:01:00,
2013-08-09 12:06:00,70.2,48.9,29.91,NE,41,3.0,4.9,47,0.00,,,-99.99,FreeWX-Wi 1.02,2013-08-09 19:06:00,
2013-08-09 12:11:00,70.5,48.7,29.91,NE,50,3.0,5.4,46,0.00,,,-99.99,FreeWX-Wi 1.02,2013-08-09 19:11:00,
2013-08-09 12:16:00,70.9,48.4,29.91,ENE,70,2.0,3.6,45,0.00,,,-99.99,FreeWX-Wi 1.02,2013-08-09 19:16:00,
2013-08-09 12:21:00,71.2,47.7,29.91,ENE,67,2.0,4.0,43,0.00,,,-99.99,FreeWX-Wi 1.02,2013-08-09 19:21:00,
2013-08-09 12:26:00,71.6,47.8,29.91,East,79,2.0,3.6,43,0.00,,,-99.99,FreeWX-Wi 1.02,2013-08-09 19:26:00,
2013-08-09 12:31:00,71.8,46.8,29.91,ESE,112,2.0,4.9,41,0.00,,,-99.99,FreeWX-Wi 1.02,2013-08-09 19:31:00,
2013-08-09 12:36:00,72.0,46.9,29.91,SE,124,1.0,4.0,41,0.00,,,-99.99,FreeWX-Wi 1.02,2013-08-09 19:36:00,
2013-08-09 12:41:00,72.1,47.1,29.91,ESE,107,2.0,5.4,41,0.00,,,-99.99,FreeWX-Wi 1.02,2013-08-09 19:41:00,
2013-08-09 12:47:00,72.3,47.3,29.91,East,97,2.0,3.6,41,0.00,,,-99.99,FreeWX-Wi 1.02,2013-08-09 19:47:00,
2013-08-09 12:52:00,72.7,46.9,29.91,East,98,2.0,5.4,40,0.00,,,-99.99,FreeWX-Wi 1.02,2013-08-09 19:52:00,
2013-08-09 12:57:00,73.0,47.3,29.91,NE,40,1.0,0.0,40,0.00,,,-99.99,FreeWX-Wi 1.02,2013-08-09 19:57:00,
2013-08-09 13:02:00,73.4,46.9,29.91,North,6,2.0,6.7,39,0.00,,,-99.99,FreeWX-Wi 1.02,2013-08-09 20:02:00,
2013-08-09 13:07:00,73.0,46.6,29.91,NNE,14,2.0,6.3,39,0.00,,,-99.99,FreeWX-Wi 1.02,2013-08-09 20:07:00,
2013-08-09 13:12:00,73.2,47.5,29.91,NNE,19,2.0,6.3,40,0.00,,,-99.99,FreeWX-Wi 1.02,2013-08-09 20:12:00,
2013-08-09 13:17:00,73.0,46.6,29.91,NNE,22,3.0,5.8,39,0.00,,,-99.99,FreeWX-Wi 1.02,2013-08-09 20:17:00,
2013-08-09 13:22:00,73.2,47.5,29.91,NNE,22,3.0,4.0,40,0.00,,,-99.99,FreeWX-Wi 1.02,2013-08-09 20:22:00,
2013-08-09 13:27:00,73.8,47.8,29.91,NNE,16,3.0,4.0,40,0.00,,,-99.99,FreeWX-Wi 1.02,2013-08-09 20:27:00,
2013-08-09 13:32:00,74.1,48.2,29.91,NNE,19,2.0,3.6,40,0.00,,,-99.99,FreeWX-Wi 1.02,2013-08-09 20:32:00,
2013-08-09 13:37:00,75.0,48.4,29.91,North,6,2.0,4.9,39,0.00,,,-99.99,FreeWX-Wi 1.02,2013-08-09 20:37:00,
2013-08-09 13:42:00,75.2,47.8,29.91,North,1,2.0,4.0,38,0.00,,,-99.99,FreeWX-Wi 1.02,2013-08-09 20:42:00,
2013-08-09 13:48:00,75.0,47.7,29.91,North,1,1.0,5.4,38,0.00,,,-99.99,FreeWX-Wi 1.02,2013-08-09 20:48:00,
2013-08-09 13:53:00,75.0,48.4,29.91,North,355,1.0,3.6,39,0.00,,,-99.99,FreeWX-Wi 1.02,2013-08-09 20:53:00,
2013-08-09 13:58:00,75.6,48.2,29.91,ESE,112,1.0,3.1,38,0.00,,,-99.99,FreeWX-Wi 1.02,2013-08-09 20:58:00,
2013-08-09 14:03:00,75.9,48.4,29.91,ESE,119,2.0,3.6,38,0.00,,,-99.99,FreeWX-Wi 1.02,2013-08-09 21:03:00,
2013-08-09 14:08:00,76.5,48.9,29.91,SE,138,1.0,2.7,38,0.00,,,-99.99,FreeWX-Wi 1.02,2013-08-09 21:08:00,
2013-08-09 16:08:00,87.8,52.5,29.91,SSE,161,2.0,4.0,30,0.00,,,-99.99,FreeWX-Wi 1.02,2013-08-09 23:08:00,
2013-08-09 16:17:00,88.3,51.1,29.91,SE,141,2.0,3.6,28,0.00,,,-99.99,FreeWX-Wi 1.02,2013-08-09 23:17:00,
2013-08-09 16:23:00,88.7,51.4,29.91,SSE,148,2.0,4.9,28,0.00,,,-99.99,FreeWX-Wi 1.02,2013-08-09 23:23:00,
2013-08-09 16:28:00,89.1,51.6,29.91,SE,146,2.0,4.0,28,0.00,,,-99.99,FreeWX-Wi 1.02,2013-08-09 23:28:00,
2013-08-09 16:33:00,89.2,51.8,29.91,SE,145,2.0,4.9,28,0.00,,,-99.99,FreeWX-Wi 1.02,2013-08-09 23:33:00,
2013-08-09 16:38:00,89.4,52.0,29.91,SE,142,2.0,3.6,28,0.00,,,-99.99,FreeWX-Wi 1.02,2013-08-09 23:38:00,
2013-08-09 16:43:00,89.8,51.3,29.91,SE,144,2.0,4.0,27,0.00,,,-99.99,FreeWX-Wi 1.02,2013-08-09 23:43:00,
2013-08-09 16:48:00,89.8,51.3,29.91,SE,140,2.0,4.0,27,0.00,,,-99.99,FreeWX-Wi 1.02,2013-08-09 23:48:00,
2013-08-09 16:53:00,89.6,51.1,29.91,SE,141,2.0,5.4,27,0.00,,,-99.99,FreeWX-Wi 1.02,2013-08-09 23:53:00,
2013-08-09 16:58:00,89.8,51.3,29.91,SE,145,2.0,5.4,27,0.00,,,-99.99,FreeWX-Wi 1.02,2013-08-09 23:58:00,
2013-08-09 17:03:00,89.8,51.3,29.91,SSE,148,2.0,3.6,27,0.00,,,-99.99,FreeWX-Wi 1.02,2013-08-10 00:03:00,
2013-08-09 17:09:00,90.1,51.6,29.91,SSE,150,2.0,4.5,27,0.00,,,-99.99,FreeWX-Wi 1.02,2013-08-10 00:09:00,
2013-08-09 17:14:00,90.3,49.6,29.91,SSE,149,2.0,6.3,25,0.00,,,-99.99,FreeWX-Wi 1.02,2013-08-10 00:14:00,
2013-08-09 17:19:00,90.3,49.6,29.91,SSE,149,2.0,3.6,25,0.00,,,-99.99,FreeWX-Wi 1.02,2013-08-10 00:19:00,
2013-08-09 17:24:00,90.0,49.5,29.91,SE,140,2.0,6.3,25,0.00,,,-99.99,FreeWX-Wi 1.02,2013-08-10 00:24:00,
2013-08-09 17:29:00,89.4,48.9,29.91,SE,133,2.0,3.6,25,0.00,,,-99.99,FreeWX-Wi 1.02,2013-08-10 00:29:00,
2013-08-09 17:34:00,89.6,49.1,29.91,ESE,121,2.0,4.0,25,0.00,,,-99.99,FreeWX-Wi 1.02,2013-08-10 00:34:00,
2013-08-09 17:39:00,89.6,49.1,29.91,ESE,116,1.0,3.6,25,0.00,,,-99.99,FreeWX-Wi 1.02,2013-08-10 00:39:00,
2013-08-09 17:44:00,90.0,49.5,29.91,ESE,117,1.0,5.8,25,0.00,,,-99.99,FreeWX-Wi 1.02,2013-08-10 00:44:00,
2013-08-09 17:49:00,89.6,49.1,29.91,ESE,112,1.0,4.0,25,0.00,,,-99.99,FreeWX-Wi 1.02,2013-08-10 00:49:00,
2013-08-09 17:54:00,89.6,49.1,29.91,ESE,116,1.0,6.3,25,0.00,,,-99.99,FreeWX-Wi 1.02,2013-08-10 00:54:00,
2013-08-09 17:59:00,89.2,48.7,29.91,ESE,113,1.0,3.6,25,0.00,,,-99.99,FreeWX-Wi 1.02,2013-08-10 00:59:00,
2013-08-09 18:05:00,89.2,48.7,29.91,SE,125,1.0,4.0,25,0.00,,,-99.99,FreeWX-Wi 1.02,2013-08-10 01:05:00,
2013-08-09 18:10:00,89.8,49.3,29.91,SE,125,1.0,4.5,25,0.00,,,-99.99,FreeWX-Wi 1.02,2013-08-10 01:10:00,
2013-08-09 18:15:00,90.1,49.5,29.91,ESE,119,1.0,5.4,25,0.00,,,-99.99,FreeWX-Wi 1.02,2013-08-10 01:15:00,
2013-08-09 18:20:00,89.8,49.3,29.91,ESE,115,1.0,3.6,25,0.00,,,-99.99,FreeWX-Wi 1.02,2013-08-10 01:20:00,
2013-08-09 18:25:00,89.4,48.9,29.91,ESE,112,1.0,4.9,25,0.00,,,-99.99,FreeWX-Wi 1.02,2013-08-10 01:25:00,
2013-08-09 18:30:00,88.7,48.4,29.91,ESE,114,1.0,2.2,25,0.00,,,-99.99,FreeWX-Wi 1.02,2013-08-10 01:30:00,
2013-08-09 18:36:00,88.2,47.8,29.91,ESE,108,1.0,6.3,25,0.00,,,-99.99,FreeWX-Wi 1.02,2013-08-10 01:36:00,
2013-08-09 18:41:00,87.6,48.4,29.91,ESE,107,1.0,3.6,26,0.00,,,-99.99,FreeWX-Wi 1.02,2013-08-10 01:41:00,
2013-08-09 18:46:00,86.5,47.5,29.91,ESE,103,1.0,2.7,26,0.00,,,-99.99,FreeWX-Wi 1.02,2013-08-10 01:46:00,
2013-08-09 18:51:00,84.9,46.2,29.91,North,-999,0.0,0.0,26,0.00,,,-99.99,FreeWX-Wi 1.02,2013-08-10 01:51:00,
2013-08-09 18:56:00,83.5,45.0,29.91,North,-999,0.0,0.0,26,0.00,,,-99.99,FreeWX-Wi 1.02,2013-08-10 01:56:00,
2013-08-09 19:01:00,82.2,45.0,29.91,North,-999,0.0,3.1,27,0.00,,,-99.99,FreeWX-Wi 1.02,2013-08-10 02:01:00,
2013-08-09 19:06:00,80.4,43.3,29.91,North,-999,0.0,3.1,27,0.00,,,-99.99,FreeWX-Wi 1.02,2013-08-10 02:06:00,
2013-08-09 19:11:00,78.3,44.2,29.91,ENE,74,1.0,4.0,30,0.00,,,-99.99,FreeWX-Wi 1.02,2013-08-10 02:11:00,
2013-08-09 19:16:00,77.2,45.9,29.91,ENE,66,1.0,3.1,33,0.00,,,-99.99,FreeWX-Wi 1.02,2013-08-10 02:16:00,
2013-08-09 19:21:00,76.8,45.5,29.91,ENE,57,1.0,4.0,33,0.00,,,-99.99,FreeWX-Wi 1.02,2013-08-10 02:21:00,
2013-08-09 19:26:00,76.8,47.1,29.91,NE,50,2.0,4.0,35,0.00,,,-99.99,FreeWX-Wi 1.02,2013-08-10 02:26:00,
2013-08-09 19:32:00,76.8,47.1,29.91,NE,43,2.0,0.0,35,0.00,,,-99.99,FreeWX-Wi 1.02,2013-08-10 02:32:00,
2013-08-09 19:37:00,77.2,47.3,29.91,NE,37,1.0,0.0,35,0.00,,,-99.99,FreeWX-Wi 1.02,2013-08-10 02:37:00,
2013-08-09 19:42:00,78.1,48.9,29.91,NE,38,1.0,0.0,36,0.00,,,-99.99,FreeWX-Wi 1.02,2013-08-10 02:42:00,
2013-08-09 19:47:00,78.8,48.7,29.91,North,-999,0.0,0.0,35,0.00,,,-99.99,FreeWX-Wi 1.02,2013-08-10 02:47:00,
2013-08-09 19:52:00,79.3,49.3,29.91,North,-999,0.0,0.0,35,0.00,,,-99.99,FreeWX-Wi 1.02,2013-08-10 02:52:00,
2013-08-09 19:57:00,79.2,49.1,29.91,North,-999,0.0,0.0,35,0.00,,,-99.99,FreeWX-Wi 1.02,2013-08-10 02:57:00,
2013-08-09 20:02:00,78.6,48.7,29.94,North,-999,0.0,0.0,35,0.00,,,-99.99,FreeWX-Wi 1.02,2013-08-10 03:02:00,
2013-08-09 20:07:00,77.5,48.4,29.94,North,-999,0.0,0.0,36,0.00,,,-99.99,FreeWX-Wi 1.02,2013-08-10 03:07:00,
2013-08-09 20:12:00,76.6,47.7,29.94,North,-999,0.0,0.0,36,0.00,,,-99.99,FreeWX-Wi 1.02,2013-08-10 03:12:00,
2013-08-09 20:17:00,75.7,46.9,29.94,North,-999,0.0,0.0,36,0.00,,,-99.99,FreeWX-Wi 1.02,2013-08-10 03:17:00,
2013-08-09 20:22:00,74.7,46.6,29.94,North,-999,0.0,0.0,37,0.00,,,-99.99,FreeWX-Wi 1.02,2013-08-10 03:22:00,
2013-08-09 20:28:00,73.8,46.6,29.94,North,-999,0.0,0.0,38,0.00,,,-99.99,FreeWX-Wi 1.02,2013-08-10 03:28:00,
2013-08-09 20:33:00,72.9,46.4,29.94,North,-999,0.0,3.1,39,0.00,,,-99.99,FreeWX-Wi 1.02,2013-08-10 03:33:00,
2013-08-09 20:38:00,72.1,45.9,29.94,North,-999,0.0,0.0,39,0.00,,,-99.99,FreeWX-Wi 1.02,2013-08-10 03:38:00,
2013-08-09 20:43:00,71.6,46.0,29.94,North,-999,0.0,0.0,40,0.00,,,-99.99,FreeWX-Wi 1.02,2013-08-10 03:43:00,
2013-08-09 20:48:00,71.1,46.8,29.91,North,-999,0.0,0.0,42,0.00,,,-99.99,FreeWX-Wi 1.02,2013-08-10 03:48:00,
2013-08-09 20:53:00,70.7,46.4,29.91,North,-999,0.0,0.0,42,0.00,,,-99.99,FreeWX-Wi 1.02,2013-08-10 03:53:00,
2013-08-09 20:58:00,70.3,47.3,29.91,North,-999,0.0,0.0,44,0.00,,,-99.99,FreeWX-Wi 1.02,2013-08-10 03:58:00,
2013-08-09 21:04:00,69.8,48.0,29.94,North,-999,0.0,0.0,46,0.00,,,-99.99,FreeWX-Wi 1.02,2013-08-10 04:04:00,
2013-08-09 21:09:00,69.6,48.6,29.94,North,-999,0.0,4.0,47,0.00,,,-99.99,FreeWX-Wi 1.02,2013-08-10 04:09:00,
2013-08-09 21:14:00,68.9,48.4,29.94,North,-999,0.0,3.6,48,0.00,,,-99.99,FreeWX-Wi 1.02,2013-08-10 04:14:00,
2013-08-09 21:19:00,68.7,48.2,29.94,North,-999,0.0,3.6,48,0.00,,,-99.99,FreeWX-Wi 1.02,2013-08-10 04:19:00,
2013-08-09 21:24:00,68.5,48.0,29.94,North,-999,0.0,0.0,48,0.00,,,-99.99,FreeWX-Wi 1.02,2013-08-10 04:24:00,
2013-08-09 21:29:00,68.4,48.4,29.94,North,-999,0.0,0.0,49,0.00,,,-99.99,FreeWX-Wi 1.02,2013-08-10 04:29:00,
2013-08-09 21:34:00,68.0,48.2,29.94,North,-999,0.0,0.0,49,0.00,,,-99.99,FreeWX-Wi 1.02,2013-08-10 04:34:00,
2013-08-09 21:39:00,68.0,48.2,29.94,North,-999,0.0,2.7,49,0.00,,,-99.99,FreeWX-Wi 1.02,2013-08-10 04:39:00,
2013-08-09 21:44:00,67.8,48.6,29.94,North,-999,0.0,0.0,50,0.00,,,-99.99,FreeWX-Wi 1.02,2013-08-10 04:44:00,
2013-08-09 21:49:00,67.6,48.4,29.94,North,-999,0.0,0.0,50,0.00,,,-99.99,FreeWX-Wi 1.02,2013-08-10 04:49:00,
2013-08-09 21:54:00,67.3,48.0,29.94,North,-999,0.0,0.0,50,0.00,,,-99.99,FreeWX-Wi 1.02,2013-08-10 04:54:00,
2013-08-09 22:00:00,67.3,48.0,29.94,North,-999,0.0,0.0,50,0.00,,,-99.99,FreeWX-Wi 1.02,2013-08-10 05:00:00,
2013-08-09 22:05:00,67.3,48.6,29.94,North,-999,0.0,0.0,51,0.00,,,-99.99,FreeWX-Wi 1.02,2013-08-10 05:05:00,
2013-08-09 22:10:00,67.3,48.6,29.94,North,-999,0.0,0.0,51,0.00,,,-99.99,FreeWX-Wi 1.02,2013-08-10 05:10:00,
2013-08-09 22:15:00,67.3,48.6,29.94,North,-999,0.0,0.0,51,0.00,,,-99.99,FreeWX-Wi 1.02,2013-08-10 05:15:00,
2013-08-09 22:20:00,67.1,48.9,29.94,North,-999,0.0,0.0,52,0.00,,,-99.99,FreeWX-Wi 1.02,2013-08-10 05:20:00,
2013-08-09 22:25:00,66.9,48.7,29.94,North,-999,0.0,0.0,52,0.00,,,-99.99,FreeWX-Wi 1.02,2013-08-10 05:25:00,
2013-08-09 22:30:00,66.7,48.6,29.94,North,-999,0.0,0.0,52,0.00,,,-99.99,FreeWX-Wi 1.02,2013-08-10 05:30:00,
2013-08-09 22:35:00,66.6,48.9,29.94,North,-999,0.0,2.7,53,0.00,,,-99.99,FreeWX-Wi 1.02,2013-08-10 05:35:00,
2013-08-09 22:40:00,66.4,48.2,29.94,North,-999,0.0,0.0,52,0.00,,,-99.99,FreeWX-Wi 1.02,2013-08-10 05:40:00,
2013-08-09 22:45:00,66.2,48.0,29.91,North,-999,0.0,0.0,52,0.00,,,-99.99,FreeWX-Wi 1.02,2013-08-10 05:45:00,
2013-08-09 22:50:00,65.8,48.2,29.91,North,-999,0.0,0.0,53,0.00,,,-99.99,FreeWX-Wi 1.02,2013-08-10 05:50:00,
2013-08-09 22:56:00,65.7,48.0,29.91,North,-999,0.0,0.0,53,0.00,,,-99.99,FreeWX-Wi 1.02,2013-08-10 05:56:00,
2013-08-09 23:01:00,65.3,48.2,29.91,North,-999,0.0,0.0,54,0.00,,,-99.99,FreeWX-Wi 1.02,2013-08-10 06:01:00,
2013-08-09 23:06:00,65.1,48.0,29.91,North,-999,0.0,0.0,54,0.00,,,-99.99,FreeWX-Wi 1.02,2013-08-10 06:06:00,
2013-08-09 23:11:00,64.9,47.8,29.91,North,-999,0.0,0.0,54,0.00,,,-99.99,FreeWX-Wi 1.02,2013-08-10 06:11:00,
2013-08-09 23:16:00,64.8,48.2,29.94,North,-999,0.0,0.0,55,0.00,,,-99.99,FreeWX-Wi 1.02,2013-08-10 06:16:00,
2013-08-09 23:21:00,64.6,48.6,29.94,North,-999,0.0,0.0,56,0.00,,,-99.99,FreeWX-Wi 1.02,2013-08-10 06:21:00,
2013-08-09 23:26:00,64.6,48.9,29.94,North,-999,0.0,0.0,57,0.00,,,-99.99,FreeWX-Wi 1.02,2013-08-10 06:26:00,
2013-08-09 23:31:00,64.6,48.9,29.94,North,-999,0.0,0.0,57,0.00,,,-99.99,FreeWX-Wi 1.02,2013-08-10 06:31:00,
2013-08-09 23:36:00,64.6,49.5,29.94,North,-999,0.0,0.0,58,0.00,,,-99.99,FreeWX-Wi 1.02,2013-08-10 06:36:00,
2013-08-09 23:41:00,64.8,49.6,29.94,North,-999,0.0,3.6,58,0.00,,,-99.99,FreeWX-Wi 1.02,2013-08-10 06:41:00,
2013-08-09 23:47:00,65.1,50.4,29.94,North,-999,0.0,3.6,59,0.00,,,-99.99,FreeWX-Wi 1.02,2013-08-10 06:47:00,
2013-08-09 23:52:00,65.3,50.5,29.94,North,-999,0.0,4.9,59,0.00,,,-99.99,FreeWX-Wi 1.02,2013-08-10 06:52:00,
2013-08-09 23:57:00,65.5,51.3,29.94,SSE,158,1.0,6.3,60,0.00,,,-99.99,FreeWX-Wi 1.02,2013-08-10 06:57:00,